createdAt,value
2019-05-11T00:23:21.106Z,3.40
2019-05-11T00:25:52.106Z,3.60
2019-05-11T01:15:52.778Z,4.20
2019-05-11T02:05:17.094Z,4.63
2019-05-11T02:07:47.918Z,4.87
2019-05-11T02:10:17.112Z,4.30
2019-05-11T02:12:46.227Z,4.73
2019-05-11T02:15:18.479Z,4.63
2019-05-11T02:17:48.131Z,4.07
2019-05-11T02:20:17.169Z,4.00
2019-05-11T02:22:46.992Z,3.87
2019-05-11T02:25:16.257Z,3.37
2019-05-11T02:27:45.243Z,3.70
2019-05-11T02:30:14.430Z,3.87
2019-05-11T02:32:49.198Z,3.40
2019-05-11T02:35:20.844Z,3.80
2019-05-11T02:37:49.638Z,3.53
2019-05-11T02:40:19.272Z,3.60
2019-05-11T02:42:48.390Z,3.10
2019-05-11T02:45:26.950Z,3.30
2019-05-11T02:47:55.856Z,3.20
2019-05-11T02:50:27.949Z,2.73
2019-05-11T02:53:00.181Z,2.73
2019-05-11T02:55:36.083Z,2.93
2019-05-11T02:58:06.192Z,3.53
2019-05-11T03:00:43.353Z,3.50
2019-05-11T03:03:12.621Z,3.70
2019-05-11T03:05:41.651Z,3.10
2019-05-11T03:08:10.755Z,2.90
2019-05-11T03:10:46.015Z,2.37
2019-05-11T03:13:21.276Z,2.70
2019-05-11T03:15:50.250Z,2.93
2019-05-11T03:18:19.810Z,3.10
2019-05-11T03:20:54.713Z,3.13
2019-05-11T03:23:26.716Z,3.93
2019-05-11T03:25:58.747Z,4.20
2019-05-11T03:28:31.148Z,4.70
2019-05-11T03:31:03.308Z,4.90
2019-05-11T03:33:35.573Z,6.63
2019-05-11T03:36:05.889Z,5.23
2019-05-11T03:38:37.877Z,5.90
2019-05-11T03:41:06.859Z,6.13
2019-05-11T03:43:39.033Z,6.20
2019-05-11T03:46:11.288Z,6.93
2019-05-11T03:48:40.149Z,7.83
2019-05-11T03:51:12.077Z,7.80
2019-05-11T03:53:41.446Z,8.50
2019-05-11T03:56:10.386Z,9.17
2019-05-11T03:58:42.596Z,9.33
2019-05-11T04:01:11.493Z,9.33
2019-05-11T04:03:40.347Z,11.03
2019-05-11T04:06:12.194Z,10.03
2019-05-11T04:08:41.045Z,9.53
2019-05-11T04:11:09.943Z,10.97
2019-05-11T04:13:41.641Z,10.23
2019-05-11T04:16:10.614Z,9.53
2019-05-11T04:18:45.740Z,9.50
2019-05-11T04:21:14.739Z,9.13
2019-05-11T04:23:43.783Z,10.20
2019-05-11T04:26:17.184Z,9.50
2019-05-11T04:28:46.093Z,9.43
2019-05-11T04:31:15.076Z,9.57
2019-05-11T04:33:43.960Z,9.13
2019-05-11T04:36:13.160Z,9.33
2019-05-11T04:38:42.581Z,8.97
2019-05-11T04:41:14.562Z,9.00
2019-05-11T04:43:43.872Z,8.17
2019-05-11T04:46:14.345Z,8.27
2019-05-11T04:48:46.064Z,8.70
2019-05-11T04:51:15.066Z,8.30
2019-05-11T04:53:53.278Z,7.50
2019-05-11T04:56:22.110Z,8.33
2019-05-11T04:58:53.982Z,8.60
2019-05-11T05:01:26.109Z,7.97
2019-05-11T05:03:57.745Z,7.57
2019-05-11T05:06:26.062Z,7.20
2019-05-11T05:08:58.122Z,7.20
2019-05-11T05:11:30.698Z,7.43
2019-05-11T05:14:02.098Z,6.27
2019-05-11T05:16:31.549Z,6.70
2019-05-11T05:19:00.563Z,6.27
2019-05-11T05:21:29.562Z,7.00
2019-05-11T05:23:58.746Z,6.23
2019-05-11T05:26:37.462Z,5.40
2019-05-11T05:29:09.414Z,5.97
2019-05-11T05:31:38.626Z,5.70
2019-05-11T05:34:07.610Z,6.40
2019-05-11T05:36:39.330Z,5.60
2019-05-11T05:39:09.455Z,5.70
2019-05-11T05:41:38.811Z,6.07
2019-05-11T05:44:10.891Z,5.60
2019-05-11T05:46:39.809Z,5.63
2019-05-11T05:49:14.218Z,5.07
2019-05-11T05:51:43.205Z,4.53
2019-05-11T05:54:12.169Z,4.00
2019-05-11T05:56:41.202Z,4.10
2019-05-11T05:59:10.074Z,4.17
2019-05-11T06:01:39.254Z,3.60
2019-05-11T06:04:08.433Z,3.23
2019-05-11T06:06:41.825Z,3.33
2019-05-11T06:09:14.170Z,3.37
2019-05-11T06:11:46.125Z,3.40
2019-05-11T06:14:15.386Z,3.50
2019-05-11T06:16:47.288Z,3.60
2019-05-11T06:19:16.134Z,3.43
2019-05-11T06:21:45.096Z,3.17
2019-05-11T06:24:14.095Z,3.23
2019-05-11T06:26:46.373Z,3.20
2019-05-11T06:29:22.041Z,2.90
2019-05-11T06:31:51.181Z,3.13
2019-05-11T06:34:24.397Z,2.80
2019-05-11T06:36:54.080Z,3.07
2019-05-11T06:39:23.187Z,2.67
2019-05-11T06:41:52.817Z,3.23
2019-05-11T06:44:21.983Z,3.30
2019-05-11T06:46:51.008Z,2.70
2019-05-11T06:49:20.870Z,3.30
2019-05-11T06:51:50.174Z,3.20
2019-05-11T06:54:21.548Z,3.20
2019-05-11T06:56:50.486Z,2.90
2019-05-11T06:59:19.467Z,3.00
2019-05-11T07:01:51.646Z,2.80
2019-05-11T07:04:23.661Z,3.13
2019-05-11T07:06:55.574Z,3.27
2019-05-11T07:09:26.449Z,3.13
2019-05-11T07:11:56.116Z,3.53
2019-05-11T07:14:25.415Z,2.70
2019-05-11T07:16:54.439Z,2.83
2019-05-11T07:19:27.033Z,2.90
2019-05-11T07:21:56.805Z,2.70
2019-05-11T07:24:25.911Z,2.70
2019-05-11T07:26:58.152Z,2.70
2019-05-11T07:29:27.793Z,2.77
2019-05-11T07:31:59.256Z,2.40
2019-05-11T07:34:38.205Z,2.50
2019-05-11T07:37:09.963Z,2.80
2019-05-11T07:39:39.313Z,2.20
2019-05-11T07:42:08.505Z,2.20
2019-05-11T07:44:41.900Z,2.10
2019-05-11T07:47:11.426Z,2.13
2019-05-11T07:49:42.974Z,4.60
2019-05-11T07:52:12.313Z,2.00
2019-05-11T07:54:43.002Z,1.60
2019-05-11T07:57:12.330Z,1.80
2019-05-11T07:59:42.734Z,1.60
2019-05-11T08:02:32.224Z,1.40
2019-05-11T08:05:24.960Z,1.30
2019-05-11T08:08:08.555Z,1.07
2019-05-11T08:10:58.621Z,1.30
2019-05-11T08:13:28.348Z,1.23
2019-05-11T08:15:59.533Z,1.30
2019-05-11T08:18:34.151Z,1.20
2019-05-11T08:21:03.206Z,1.30
2019-05-11T08:23:32.337Z,1.00
2019-05-11T08:26:03.743Z,0.80
2019-05-11T08:28:32.750Z,0.87
2019-05-11T08:31:01.964Z,0.70
2019-05-11T08:33:38.920Z,0.93
2019-05-11T08:36:11.899Z,0.80
2019-05-11T08:38:58.518Z,0.90
2019-05-11T08:41:31.129Z,0.90
2019-05-11T08:44:03.009Z,1.00
2019-05-11T08:46:44.118Z,0.70
2019-05-11T08:49:15.602Z,0.87
2019-05-11T08:51:47.819Z,1.23
2019-05-11T08:54:18.317Z,1.50
2019-05-11T08:56:48.615Z,0.60
2019-05-11T08:59:18.781Z,0.60
2019-05-11T09:01:49.709Z,3.97
2019-05-11T09:04:22.446Z,1.10
2019-05-11T09:06:55.750Z,0.80
2019-05-11T09:09:28.637Z,1.00
2019-05-11T09:12:01.145Z,1.10
2019-05-11T09:14:38.766Z,0.90
2019-05-11T09:17:10.045Z,1.00
2019-05-11T09:19:41.854Z,0.90
2019-05-11T09:22:18.743Z,0.80
2019-05-11T09:24:50.658Z,1.10
2019-05-11T09:27:22.851Z,0.90
2019-05-11T09:29:58.144Z,1.10
2019-05-11T09:32:31.187Z,0.90
2019-05-11T09:35:03.772Z,0.83
2019-05-11T09:37:37.895Z,1.13
2019-05-11T09:40:07.849Z,1.30
2019-05-11T09:42:40.496Z,0.87
2019-05-11T09:45:09.666Z,0.87
2019-05-11T09:47:38.855Z,0.80
2019-05-11T09:50:08.799Z,0.80
2019-05-11T09:52:38.521Z,0.80
2019-05-11T09:55:09.066Z,0.90
2019-05-11T09:57:43.476Z,0.80
2019-05-11T10:00:12.752Z,0.90
2019-05-11T10:02:42.356Z,1.10
2019-05-11T10:05:11.890Z,1.07
2019-05-11T10:07:41.366Z,0.77
2019-05-11T10:10:10.594Z,0.60
2019-05-11T10:12:40.069Z,0.60
2019-05-11T10:15:09.383Z,0.80
2019-05-11T10:17:44.084Z,0.80
2019-05-11T10:20:13.075Z,0.70
2019-05-11T10:22:42.005Z,0.50
2019-05-11T10:25:11.035Z,0.50
2019-05-11T10:27:39.883Z,0.60
2019-05-11T10:30:09.476Z,0.47
2019-05-11T10:32:43.335Z,0.70
2019-05-11T10:35:12.301Z,0.60
2019-05-11T10:37:44.229Z,0.67
2019-05-11T10:40:13.312Z,0.80
2019-05-11T10:42:42.215Z,0.80
2019-05-11T10:45:11.521Z,0.70
2019-05-11T10:47:48.720Z,0.80
2019-05-11T10:50:18.725Z,0.87
2019-05-11T10:52:50.096Z,0.90
2019-05-11T10:55:19.655Z,0.70
2019-05-11T10:57:49.914Z,0.50
2019-05-11T11:00:20.511Z,0.40
2019-05-11T11:02:53.866Z,0.80
2019-05-11T11:05:23.077Z,0.90
2019-05-11T11:07:55.101Z,0.80
2019-05-11T11:10:28.439Z,0.33
2019-05-11T11:12:59.957Z,0.40
2019-05-11T11:15:33.070Z,0.43
2019-05-11T11:18:08.306Z,0.53
2019-05-11T11:20:39.940Z,0.50
2019-05-11T11:23:12.534Z,1.80
2019-05-11T11:25:44.686Z,1.10
2019-05-11T11:28:20.256Z,1.70
2019-05-11T11:30:53.432Z,0.50
2019-05-11T11:33:27.707Z,0.60
2019-05-11T11:36:00.407Z,6.43
2019-05-11T11:38:34.490Z,1.80
2019-05-11T11:41:10.398Z,0.90
2019-05-11T11:43:42.455Z,3.67
2019-05-11T11:46:14.498Z,0.70
2019-05-11T11:48:48.984Z,0.97
2019-05-11T11:51:21.116Z,0.60
2019-05-11T11:53:54.517Z,0.50
2019-05-11T11:56:28.344Z,0.70
2019-05-11T11:59:02.480Z,0.70
2019-05-11T12:01:34.697Z,0.77
2019-05-11T12:04:13.877Z,0.90
2019-05-11T12:06:49.222Z,0.90
2019-05-11T12:09:21.274Z,0.83
2019-05-11T12:11:54.126Z,0.87
2019-05-11T12:34:58.639Z,6.90
2019-05-11T13:02:03.166Z,1.10
2019-05-11T13:05:25.345Z,1.20
2019-05-11T13:15:51.423Z,1.13
2019-05-11T13:18:29.953Z,1.20
2019-05-11T13:21:13.013Z,1.03
2019-05-11T13:24:05.486Z,0.90
2019-05-11T13:27:12.992Z,1.10
2019-05-11T13:29:55.026Z,1.37
2019-05-11T13:32:28.294Z,1.70
2019-05-11T13:35:09.348Z,1.60
2019-05-11T13:37:54.234Z,1.30
2019-05-11T13:41:08.066Z,1.60
2019-05-11T13:43:44.927Z,1.10
2019-05-11T13:50:17.762Z,1.20
2019-05-11T13:53:31.787Z,0.90
2019-05-11T13:56:18.656Z,1.10
2019-05-11T13:59:50.372Z,1.30
2019-05-11T14:02:32.392Z,0.70
2019-05-11T14:05:40.878Z,1.03
2019-05-11T14:08:27.662Z,1.13
2019-05-11T14:18:04.691Z,1.20
2019-05-11T14:51:22.733Z,1.30
2019-05-11T15:14:40.140Z,2.17
2019-05-11T15:18:17.790Z,2.10
2019-05-11T15:32:17.910Z,2.57
2019-05-11T15:35:43.781Z,2.40
2019-05-11T15:42:19.842Z,2.37
2019-05-11T15:44:58.549Z,3.30
2019-05-11T15:47:31.430Z,4.50
2019-05-11T15:53:01.523Z,2.80
2019-05-11T15:55:59.575Z,2.67
2019-05-11T15:58:31.105Z,3.10
2019-05-11T16:11:08.156Z,2.90
2019-05-11T16:20:49.943Z,3.50
2019-05-11T16:23:21.830Z,3.57
2019-05-11T16:29:04.138Z,3.93
2019-05-11T16:31:33.788Z,4.43
2019-05-11T16:34:20.148Z,4.60
2019-05-11T16:37:05.429Z,4.27
2019-05-11T16:43:23.156Z,4.73
2019-05-11T16:45:52.207Z,4.30
2019-05-11T16:48:33.334Z,4.80
2019-05-11T16:51:10.562Z,5.07
2019-05-11T16:53:49.287Z,5.27
2019-05-11T16:56:30.360Z,4.80
2019-05-11T16:59:28.893Z,5.40
2019-05-11T17:05:48.497Z,5.03
2019-05-11T17:11:18.628Z,5.00
2019-05-11T17:13:48.694Z,5.10
2019-05-11T17:17:35.580Z,4.03
2019-05-11T17:22:40.663Z,4.60
2019-05-11T17:23:31.259Z,4.50
2019-05-11T17:26:23.483Z,4.37
2019-05-11T17:35:21.492Z,4.60
2019-05-11T17:38:09.940Z,3.67
2019-05-11T17:44:22.023Z,3.80
2019-05-11T17:46:57.865Z,3.83
2019-05-11T17:50:02.942Z,3.83
2019-05-11T17:53:03.624Z,3.40
2019-05-11T17:56:24.290Z,3.43
2019-05-11T17:58:31.755Z,4.20
2019-05-11T18:01:18.478Z,4.00
2019-05-11T18:03:38.470Z,3.97
2019-05-11T18:10:18.015Z,4.07
2019-05-11T18:13:18.353Z,3.80
2019-05-11T18:16:14.204Z,4.00
2019-05-11T18:19:08.175Z,4.20
2019-05-11T18:21:42.978Z,3.97
2019-05-11T18:24:17.789Z,3.90
2019-05-11T18:27:35.006Z,4.20
2019-05-11T18:30:21.921Z,4.10
2019-05-11T18:36:38.037Z,4.20
2019-05-11T18:39:18.714Z,4.80
2019-05-11T18:42:18.766Z,4.70
2019-05-11T18:47:23.273Z,4.80
2019-05-11T18:50:02.737Z,4.53
2019-05-11T18:52:32.828Z,4.83
2019-05-11T18:55:31.208Z,4.47
2019-05-11T18:58:10.735Z,4.60
2019-05-11T19:01:14.249Z,4.40
2019-05-11T19:04:00.138Z,5.23
2019-05-11T19:07:14.216Z,4.87
2019-05-11T19:09:12.351Z,5.57
2019-05-11T19:24:34.122Z,5.73
2019-05-11T19:30:40.516Z,5.50
2019-05-11T19:33:23.013Z,6.00
2019-05-11T19:35:54.088Z,6.40
2019-05-11T19:38:23.341Z,6.20
2019-05-11T19:40:54.609Z,5.50
2019-05-11T19:43:27.686Z,5.63
2019-05-11T19:46:01.156Z,6.07
2019-05-11T19:48:34.092Z,6.27
2019-05-11T19:51:09.090Z,6.23
2019-05-11T19:53:40.727Z,6.50
2019-05-11T19:56:11.768Z,6.80
2019-05-11T19:58:41.763Z,7.07
2019-05-11T20:01:12.312Z,7.07
2019-05-11T20:03:45.454Z,7.90
2019-05-11T20:06:15.006Z,6.93
2019-05-11T20:08:44.978Z,7.10
2019-05-11T20:11:14.918Z,7.03
2019-05-11T20:13:44.084Z,7.17
2019-05-11T20:16:14.606Z,7.07
2019-05-11T20:19:09.116Z,7.23
2019-05-11T20:21:43.932Z,7.20
2019-05-11T20:24:37.200Z,7.17
2019-05-11T20:27:58.480Z,7.13
2019-05-11T20:31:15.287Z,8.07
2019-05-11T20:33:57.588Z,7.87
2019-05-11T20:37:07.841Z,8.63
2019-05-11T20:39:41.930Z,7.30
2019-05-11T20:42:12.596Z,8.03
2019-05-11T20:44:54.091Z,8.00
2019-05-11T20:47:41.192Z,8.10
2019-05-11T20:50:32.929Z,7.97
2019-05-11T20:53:17.481Z,7.93
2019-05-11T20:55:49.551Z,9.07
2019-05-11T20:58:28.922Z,8.30
2019-05-11T21:00:59.639Z,8.77
2019-05-11T21:03:29.038Z,8.90
2019-05-11T21:06:51.895Z,8.87
2019-05-11T21:09:21.411Z,9.70
2019-05-11T21:12:08.138Z,9.90
2019-05-11T21:14:53.491Z,9.23
2019-05-11T21:17:37.780Z,9.37
2019-05-11T21:20:05.821Z,9.03
2019-05-11T21:22:57.968Z,8.73
2019-05-11T21:25:38.697Z,8.70
2019-05-11T21:28:17.935Z,9.20
2019-05-11T21:31:04.639Z,9.67
2019-05-11T21:33:37.735Z,9.90
2019-05-11T21:36:39.897Z,10.40
2019-05-11T21:39:10.692Z,10.00
2019-05-11T21:41:43.410Z,10.37
2019-05-11T21:47:49.065Z,11.33
2019-05-11T21:50:27.938Z,11.20
2019-05-11T21:53:10.568Z,10.40
2019-05-11T21:55:49.988Z,10.70
2019-05-11T21:58:34.913Z,12.63
2019-05-11T22:01:12.295Z,10.87
2019-05-11T22:03:42.319Z,12.67
2019-05-11T22:06:42.236Z,12.30
2019-05-11T22:09:08.222Z,11.73
2019-05-11T22:14:57.966Z,13.00
2019-05-11T22:17:42.290Z,12.77
2019-05-11T22:20:23.278Z,13.57
2019-05-11T22:22:59.595Z,13.87
2019-05-11T22:25:51.318Z,14.63
2019-05-11T22:28:30.915Z,13.03
2019-05-11T22:31:11.564Z,13.57
2019-05-11T22:33:44.304Z,12.77
2019-05-11T22:36:17.340Z,13.27
2019-05-11T22:38:49.970Z,13.57
2019-05-11T22:41:43.931Z,13.67
2019-05-11T22:44:18.557Z,14.23
2019-05-11T22:46:47.978Z,14.90
2019-05-11T22:49:18.133Z,14.67
2019-05-11T22:52:10.525Z,14.87
2019-05-11T22:55:20.275Z,16.00
2019-05-11T23:01:17.941Z,15.67
2019-05-11T23:01:37.780Z,16.07
2019-05-11T23:03:51.452Z,16.97
2019-05-11T23:06:24.141Z,18.27
2019-05-11T23:08:54.173Z,17.30
2019-05-11T23:14:03.769Z,17.70
2019-05-11T23:16:34.188Z,17.67
2019-05-11T23:19:13.406Z,17.20
2019-05-11T23:21:42.849Z,16.00
2019-05-11T23:24:17.940Z,16.33
2019-05-11T23:27:18.047Z,14.47
2019-05-11T23:33:13.392Z,15.03
2019-05-11T23:36:59.251Z,15.10
2019-05-11T23:39:40.876Z,14.20
2019-05-11T23:42:48.654Z,14.30
2019-05-11T23:45:18.844Z,13.07
2019-05-11T23:47:49.032Z,12.10
2019-05-11T23:50:21.552Z,11.27
2019-05-11T23:56:03.194Z,8.90
2019-05-11T23:58:32.390Z,8.83
